Terminal Aerodrome Forecast
Issued by NWS Goodland, KS

Home | Current Version | Previous Version | Text Only | Print | Product List | Glossary On
Versions: 1 2 3 4 5 6 7 8 9 10 11 12 13 14 15 16
000
FTUS43 KGLD 242320
TAFGLD
TAF
KGLD 242320Z 2500/2524 28011KT P6SM FEW250
     FM250600 24008KT P6SM SCT250
     FM251300 29012KT P6SM FEW100 SCT200
     FM251600 32015G23KT P6SM SCT050 BKN100
     FM252100 34020G30KT P6SM VCSH BKN050=

USA.gov is the U.S. government's official web portal to all federal, state and local government web resources and services.